sensor_id;sensor_type;location;lat;lon;timestamp;pressure;altitude;pressure_sealevel;temperature;humidity
42847;BME280;28495;49.916;14.536;2022-08-30T00:03:15;97299.91;;;17.16;62.25
42847;BME280;28495;49.916;14.536;2022-08-30T00:08:37;97298.91;;;17.09;62.17
42847;BME280;28495;49.916;14.536;2022-08-30T00:13:59;97300.59;;;17.01;62.00
42847;BME280;28495;49.916;14.536;2022-08-30T00:19:19;97296.94;;;17.02;62.44
42847;BME280;28495;49.916;14.536;2022-08-30T00:24:40;97295.66;;;16.98;62.26
42847;BME280;28495;49.916;14.536;2022-08-30T00:30:01;97302.56;;;16.83;61.99
42847;BME280;28495;49.916;14.536;2022-08-30T00:35:22;97307.53;;;16.69;62.28
42847;BME280;28495;49.916;14.536;2022-08-30T00:40:44;97296.47;;;16.74;62.51
42847;BME280;28495;49.916;14.536;2022-08-30T00:46:05;97300.25;;;16.71;62.22
42847;BME280;28495;49.916;14.536;2022-08-30T00:51:28;97300.44;;;16.78;62.81
42847;BME280;28495;49.916;14.536;2022-08-30T00:56:51;97292.66;;;16.93;62.55
42847;BME280;28495;49.916;14.536;2022-08-30T01:02:13;97297.28;;;16.91;62.41
42847;BME280;28495;49.916;14.536;2022-08-30T01:07:33;97297.44;;;16.89;62.27
42847;BME280;28495;49.916;14.536;2022-08-30T01:12:54;97300.25;;;16.80;62.37
42847;BME280;28495;49.916;14.536;2022-08-30T01:18:16;97295.66;;;16.82;62.09
42847;BME280;28495;49.916;14.536;2022-08-30T01:23:43;97299.59;;;16.86;62.13
42847;BME280;28495;49.916;14.536;2022-08-30T01:29:10;97293.84;;;16.74;62.02
42847;BME280;28495;49.916;14.536;2022-08-30T01:34:31;97300.28;;;16.63;62.21
42847;BME280;28495;49.916;14.536;2022-08-30T01:39:52;97294.97;;;16.71;62.41
42847;BME280;28495;49.916;14.536;2022-08-30T01:45:13;97296.84;;;16.63;62.15
42847;BME280;28495;49.916;14.536;2022-08-30T01:50:33;97296.16;;;16.44;62.41
42847;BME280;28495;49.916;14.536;2022-08-30T01:55:57;97292.03;;;16.41;62.56
42847;BME280;28495;49.916;14.536;2022-08-30T02:01:21;97289.25;;;16.35;63.03
42847;BME280;28495;49.916;14.536;2022-08-30T02:06:43;97294.69;;;16.50;63.56
42847;BME280;28495;49.916;14.536;2022-08-30T02:12:05;97284.97;;;16.58;63.06
42847;BME280;28495;49.916;14.536;2022-08-30T02:17:27;97291.41;;;16.56;63.26
42847;BME280;28495;49.916;14.536;2022-08-30T02:22:48;97288.78;;;16.56;63.07
42847;BME280;28495;49.916;14.536;2022-08-30T02:28:10;97288.09;;;16.62;63.16
42847;BME280;28495;49.916;14.536;2022-08-30T02:33:35;97287.13;;;16.55;63.23
42847;BME280;28495;49.916;14.536;2022-08-30T02:38:59;97291.56;;;16.54;63.08
42847;BME280;28495;49.916;14.536;2022-08-30T02:44:20;97289.41;;;16.66;63.59
42847;BME280;28495;49.916;14.536;2022-08-30T02:49:41;97288.91;;;16.71;63.53
42847;BME280;28495;49.916;14.536;2022-08-30T02:55:03;97281.69;;;16.56;62.98
42847;BME280;28495;49.916;14.536;2022-08-30T03:00:24;97281.03;;;16.63;63.48
42847;BME280;28495;49.916;14.536;2022-08-30T03:05:45;97284.00;;;16.59;63.05
42847;BME280;28495;49.916;14.536;2022-08-30T03:11:06;97284.81;;;16.52;63.37
42847;BME280;28495;49.916;14.536;2022-08-30T03:16:27;97292.53;;;16.61;63.48
42847;BME280;28495;49.916;14.536;2022-08-30T03:21:48;97294.66;;;16.58;63.41
42847;BME280;28495;49.916;14.536;2022-08-30T03:27:10;97289.91;;;16.53;63.11
42847;BME280;28495;49.916;14.536;2022-08-30T03:32:32;97290.06;;;16.35;62.96
42847;BME280;28495;49.916;14.536;2022-08-30T03:37:53;97295.50;;;16.34;63.25
42847;BME280;28495;49.916;14.536;2022-08-30T03:43:16;97301.09;;;16.39;63.70
42847;BME280;28495;49.916;14.536;2022-08-30T03:48:37;97288.75;;;16.48;63.66
42847;BME280;28495;49.916;14.536;2022-08-30T03:53:58;97292.22;;;16.40;63.44
42847;BME280;28495;49.916;14.536;2022-08-30T03:59:19;97293.34;;;16.29;63.74
42847;BME280;28495;49.916;14.536;2022-08-30T04:04:40;97287.28;;;16.28;63.73
42847;BME280;28495;49.916;14.536;2022-08-30T04:10:03;97286.31;;;16.46;64.00
42847;BME280;28495;49.916;14.536;2022-08-30T04:15:24;97276.25;;;16.41;63.77
42847;BME280;28495;49.916;14.536;2022-08-30T04:20:45;97278.53;;;16.28;63.50
42847;BME280;28495;49.916;14.536;2022-08-30T04:26:07;97286.63;;;16.26;63.79
42847;BME280;28495;49.916;14.536;2022-08-30T04:31:28;97291.06;;;16.34;63.51
42847;BME280;28495;49.916;14.536;2022-08-30T04:36:51;97298.13;;;16.25;63.81
42847;BME280;28495;49.916;14.536;2022-08-30T04:42:12;97294.69;;;16.33;63.78
42847;BME280;28495;49.916;14.536;2022-08-30T04:47:33;97305.22;;;16.25;63.79
42847;BME280;28495;49.916;14.536;2022-08-30T04:52:54;97315.91;;;16.40;63.92
42847;BME280;28495;49.916;14.536;2022-08-30T04:58:15;97316.75;;;16.40;63.84
42847;BME280;28495;49.916;14.536;2022-08-30T05:03:36;97321.16;;;16.40;64.04
42847;BME280;28495;49.916;14.536;2022-08-30T05:08:57;97323.47;;;16.68;64.25
42847;BME280;28495;49.916;14.536;2022-08-30T05:14:20;97327.25;;;16.90;64.36
42847;BME280;28495;49.916;14.536;2022-08-30T05:19:41;97325.91;;;16.94;64.17
42847;BME280;28495;49.916;14.536;2022-08-30T05:25:02;97321.63;;;16.93;64.05
42847;BME280;28495;49.916;14.536;2022-08-30T05:30:26;97326.41;;;16.81;64.18
42847;BME280;28495;49.916;14.536;2022-08-30T05:35:47;97329.56;;;16.85;64.42
42847;BME280;28495;49.916;14.536;2022-08-30T05:41:08;97336.31;;;16.96;64.82
42847;BME280;28495;49.916;14.536;2022-08-30T05:46:33;97335.31;;;16.88;64.56
42847;BME280;28495;49.916;14.536;2022-08-30T05:51:54;97334.66;;;16.95;64.93
42847;BME280;28495;49.916;14.536;2022-08-30T05:57:16;97341.91;;;17.01;65.02
42847;BME280;28495;49.916;14.536;2022-08-30T06:02:36;97343.53;;;17.10;65.04
42847;BME280;28495;49.916;14.536;2022-08-30T06:07:57;97348.16;;;17.16;64.70
42847;BME280;28495;49.916;14.536;2022-08-30T06:13:18;97344.34;;;17.27;64.51
42847;BME280;28495;49.916;14.536;2022-08-30T06:18:39;97354.19;;;17.42;64.49
42847;BME280;28495;49.916;14.536;2022-08-30T06:24:02;97342.75;;;17.66;64.36
42847;BME280;28495;49.916;14.536;2022-08-30T06:29:23;97338.81;;;18.02;64.69
42847;BME280;28495;49.916;14.536;2022-08-30T06:34:44;97334.84;;;18.52;64.50
42847;BME280;28495;49.916;14.536;2022-08-30T06:40:05;97343.09;;;18.72;63.91
42847;BME280;28495;49.916;14.536;2022-08-30T06:45:26;97345.22;;;19.15;63.95
42847;BME280;28495;49.916;14.536;2022-08-30T06:50:52;97351.16;;;19.47;63.58
42847;BME280;28495;49.916;14.536;2022-08-30T06:56:15;97351.97;;;19.18;62.89
42847;BME280;28495;49.916;14.536;2022-08-30T07:01:37;97348.59;;;19.09;63.75
42847;BME280;28495;49.916;14.536;2022-08-30T07:06:58;97348.53;;;19.32;63.70
42847;BME280;28495;49.916;14.536;2022-08-30T07:12:20;97337.94;;;19.62;63.42
42847;BME280;28495;49.916;14.536;2022-08-30T07:17:41;97356.91;;;19.81;63.04
42847;BME280;28495;49.916;14.536;2022-08-30T07:23:20;97355.25;;;19.80;62.74
42847;BME280;28495;49.916;14.536;2022-08-30T07:28:43;97363.19;;;19.95;62.70
42847;BME280;28495;49.916;14.536;2022-08-30T07:34:05;97366.13;;;20.00;62.49
42847;BME280;28495;49.916;14.536;2022-08-30T07:39:27;97365.97;;;19.87;62.30
42847;BME280;28495;49.916;14.536;2022-08-30T07:44:50;97364.31;;;19.56;62.28
42847;BME280;28495;49.916;14.536;2022-08-30T07:50:16;97358.00;;;19.42;62.24
42847;BME280;28495;49.916;14.536;2022-08-30T07:55:37;97365.13;;;19.41;62.82
42847;BME280;28495;49.916;14.536;2022-08-30T08:00:58;97375.69;;;19.26;62.65
42847;BME280;28495;49.916;14.536;2022-08-30T08:06:21;97379.69;;;19.22;62.89
42847;BME280;28495;49.916;14.536;2022-08-30T08:11:42;97366.75;;;19.12;62.91
42847;BME280;28495;49.916;14.536;2022-08-30T08:17:03;97381.88;;;19.18;63.51
42847;BME280;28495;49.916;14.536;2022-08-30T08:22:24;97377.13;;;19.29;63.62
42847;BME280;28495;49.916;14.536;2022-08-30T08:27:46;97379.00;;;19.43;63.51
42847;BME280;28495;49.916;14.536;2022-08-30T08:33:08;97382.63;;;19.72;63.75
42847;BME280;28495;49.916;14.536;2022-08-30T08:38:30;97379.53;;;19.84;63.18
42847;BME280;28495;49.916;14.536;2022-08-30T08:43:51;97376.06;;;19.98;63.44
42847;BME280;28495;49.916;14.536;2022-08-30T08:49:12;97377.94;;;20.04;63.18
42847;BME280;28495;49.916;14.536;2022-08-30T08:54:40;97382.94;;;20.14;63.22
42847;BME280;28495;49.916;14.536;2022-08-30T09:00:07;97371.44;;;20.22;62.40
42847;BME280;28495;49.916;14.536;2022-08-30T09:05:39;97372.34;;;20.29;62.22
42847;BME280;28495;49.916;14.536;2022-08-30T09:11:05;97361.59;;;20.37;62.79
42847;BME280;28495;49.916;14.536;2022-08-30T09:16:46;97350.91;;;20.46;62.07
42847;BME280;28495;49.916;14.536;2022-08-30T09:22:33;97358.72;;;20.54;62.18
42847;BME280;28495;49.916;14.536;2022-08-30T09:28:10;97354.88;;;20.56;62.26
42847;BME280;28495;49.916;14.536;2022-08-30T09:33:32;97346.78;;;20.65;62.49
42847;BME280;28495;49.916;14.536;2022-08-30T09:38:59;97349.13;;;20.75;61.75
42847;BME280;28495;49.916;14.536;2022-08-30T09:44:23;97345.03;;;20.72;61.85
42847;BME280;28495;49.916;14.536;2022-08-30T09:49:47;97336.22;;;20.86;61.97
42847;BME280;28495;49.916;14.536;2022-08-30T10:00:59;97337.69;;;21.24;62.30
42847;BME280;28495;49.916;14.536;2022-08-30T10:06:30;97331.53;;;21.17;61.66
42847;BME280;28495;49.916;14.536;2022-08-30T10:23:31;97336.03;;;21.16;61.59
42847;BME280;28495;49.916;14.536;2022-08-30T10:28:58;97337.38;;;21.06;62.05
42847;BME280;28495;49.916;14.536;2022-08-30T10:34:34;97323.53;;;21.10;62.01
42847;BME280;28495;49.916;14.536;2022-08-30T10:40:04;97325.41;;;21.16;62.50
42847;BME280;28495;49.916;14.536;2022-08-30T10:45:49;97306.97;;;21.37;62.67
42847;BME280;28495;49.916;14.536;2022-08-30T10:51:23;97313.41;;;21.27;62.02
42847;BME280;28495;49.916;14.536;2022-08-30T10:56:49;97321.78;;;21.24;61.82
42847;BME280;28495;49.916;14.536;2022-08-30T11:08:36;97320.88;;;21.45;61.76
42847;BME280;28495;49.916;14.536;2022-08-30T11:14:00;97324.50;;;21.38;61.95
42847;BME280;28495;49.916;14.536;2022-08-30T11:35:51;97324.03;;;21.62;61.69
42847;BME280;28495;49.916;14.536;2022-08-30T11:41:28;97311.84;;;21.75;61.53
42847;BME280;28495;49.916;14.536;2022-08-30T11:46:58;97312.94;;;21.94;61.31
42847;BME280;28495;49.916;14.536;2022-08-30T11:52:37;97314.78;;;21.93;60.87
42847;BME280;28495;49.916;14.536;2022-08-30T12:03:32;97317.13;;;21.68;60.50
42847;BME280;28495;49.916;14.536;2022-08-30T12:08:54;97315.06;;;21.64;60.71
42847;BME280;28495;49.916;14.536;2022-08-30T12:14:44;97319.69;;;21.55;60.64
42847;BME280;28495;49.916;14.536;2022-08-30T12:25:42;97299.06;;;21.50;59.84
42847;BME280;28495;49.916;14.536;2022-08-30T12:31:09;97297.00;;;21.45;60.27
42847;BME280;28495;49.916;14.536;2022-08-30T12:36:35;97293.47;;;21.38;59.80
42847;BME280;28495;49.916;14.536;2022-08-30T12:47:50;97288.81;;;21.40;59.69
42847;BME280;28495;49.916;14.536;2022-08-30T12:53:12;97282.41;;;21.28;60.01
42847;BME280;28495;49.916;14.536;2022-08-30T12:58:51;97280.78;;;21.27;59.69
42847;BME280;28495;49.916;14.536;2022-08-30T13:04:19;97272.84;;;21.34;59.90
42847;BME280;28495;49.916;14.536;2022-08-30T13:09:42;97273.50;;;21.42;59.56
42847;BME280;28495;49.916;14.536;2022-08-30T13:15:17;97266.63;;;21.55;59.62
42847;BME280;28495;49.916;14.536;2022-08-30T13:20:39;97270.09;;;21.55;59.22
42847;BME280;28495;49.916;14.536;2022-08-30T13:26:00;97267.84;;;21.52;58.97
42847;BME280;28495;49.916;14.536;2022-08-30T13:31:21;97263.38;;;21.59;59.15
42847;BME280;28495;49.916;14.536;2022-08-30T13:36:46;97263.22;;;21.61;59.24
42847;BME280;28495;49.916;14.536;2022-08-30T13:42:07;97250.53;;;21.63;59.09
42847;BME280;28495;49.916;14.536;2022-08-30T13:47:48;97245.47;;;21.68;59.67
42847;BME280;28495;49.916;14.536;2022-08-30T13:53:10;97239.13;;;21.69;59.09
42847;BME280;28495;49.916;14.536;2022-08-30T13:58:31;97229.34;;;21.70;59.60
42847;BME280;28495;49.916;14.536;2022-08-30T14:03:53;97233.84;;;21.76;59.84
42847;BME280;28495;49.916;14.536;2022-08-30T14:09:33;97236.91;;;21.80;59.21
42847;BME280;28495;49.916;14.536;2022-08-30T14:14:55;97223.44;;;21.74;59.14
42847;BME280;28495;49.916;14.536;2022-08-30T14:20:19;97228.31;;;21.71;58.84
42847;BME280;28495;49.916;14.536;2022-08-30T14:25:40;97219.75;;;21.69;59.43
42847;BME280;28495;49.916;14.536;2022-08-30T14:31:01;97222.84;;;21.79;59.13
42847;BME280;28495;49.916;14.536;2022-08-30T14:36:22;97217.31;;;21.81;59.15
42847;BME280;28495;49.916;14.536;2022-08-30T14:41:50;97215.88;;;21.71;58.95
42847;BME280;28495;49.916;14.536;2022-08-30T14:47:11;97200.97;;;21.70;58.92
42847;BME280;28495;49.916;14.536;2022-08-30T14:52:32;97203.59;;;21.64;58.68
42847;BME280;28495;49.916;14.536;2022-08-30T14:57:53;97192.38;;;21.68;59.41
42847;BME280;28495;49.916;14.536;2022-08-30T15:03:14;97199.31;;;21.69;58.85
42847;BME280;28495;49.916;14.536;2022-08-30T15:08:35;97195.03;;;21.68;58.72
42847;BME280;28495;49.916;14.536;2022-08-30T15:13:56;97185.44;;;21.74;59.31
42847;BME280;28495;49.916;14.536;2022-08-30T15:19:17;97185.44;;;21.81;59.06
42847;BME280;28495;49.916;14.536;2022-08-30T15:24:39;97180.34;;;21.79;58.63
42847;BME280;28495;49.916;14.536;2022-08-30T15:30:00;97181.38;;;21.78;58.72
42847;BME280;28495;49.916;14.536;2022-08-30T15:35:21;97188.09;;;21.74;58.54
42847;BME280;28495;49.916;14.536;2022-08-30T15:40:42;97172.78;;;21.69;58.86
42847;BME280;28495;49.916;14.536;2022-08-30T15:46:23;97171.34;;;21.67;58.65
42847;BME280;28495;49.916;14.536;2022-08-30T15:51:51;97180.09;;;21.60;58.89
42847;BME280;28495;49.916;14.536;2022-08-30T15:57:14;97174.13;;;21.52;59.18
42847;BME280;28495;49.916;14.536;2022-08-30T16:02:35;97173.31;;;21.44;59.31
42847;BME280;28495;49.916;14.536;2022-08-30T16:07:58;97174.31;;;21.37;58.99
42847;BME280;28495;49.916;14.536;2022-08-30T16:13:19;97170.66;;;21.38;59.52
42847;BME280;28495;49.916;14.536;2022-08-30T16:18:40;97167.56;;;21.41;58.83
42847;BME280;28495;49.916;14.536;2022-08-30T16:24:02;97166.97;;;21.32;59.27
42847;BME280;28495;49.916;14.536;2022-08-30T16:29:23;97166.34;;;21.30;58.82
42847;BME280;28495;49.916;14.536;2022-08-30T16:34:44;97168.34;;;21.21;59.23
42847;BME280;28495;49.916;14.536;2022-08-30T16:40:06;97159.97;;;21.17;59.66
42847;BME280;28495;49.916;14.536;2022-08-30T16:45:28;97165.47;;;21.16;59.95
42847;BME280;28495;49.916;14.536;2022-08-30T16:50:54;97162.00;;;21.15;59.53
42847;BME280;28495;49.916;14.536;2022-08-30T16:56:19;97157.47;;;21.09;59.52
42847;BME280;28495;49.916;14.536;2022-08-30T17:01:41;97154.41;;;21.06;60.02
42847;BME280;28495;49.916;14.536;2022-08-30T17:07:23;97165.59;;;20.94;59.57
42847;BME280;28495;49.916;14.536;2022-08-30T17:12:44;97166.59;;;20.93;59.93
42847;BME280;28495;49.916;14.536;2022-08-30T17:18:05;97173.03;;;20.77;59.82
42847;BME280;28495;49.916;14.536;2022-08-30T17:23:28;97171.69;;;20.66;60.08
42847;BME280;28495;49.916;14.536;2022-08-30T17:28:49;97175.72;;;20.55;60.10
42847;BME280;28495;49.916;14.536;2022-08-30T17:34:10;97176.25;;;20.44;59.88
42847;BME280;28495;49.916;14.536;2022-08-30T17:39:33;97183.13;;;20.38;60.34
42847;BME280;28495;49.916;14.536;2022-08-30T17:44:55;97178.38;;;20.27;60.11
42847;BME280;28495;49.916;14.536;2022-08-30T17:50:20;97177.25;;;20.15;60.19
42847;BME280;28495;49.916;14.536;2022-08-30T17:55:47;97179.22;;;20.06;60.21
42847;BME280;28495;49.916;14.536;2022-08-30T18:01:10;97190.38;;;20.01;60.21
42847;BME280;28495;49.916;14.536;2022-08-30T18:06:33;97188.44;;;19.88;60.29
42847;BME280;28495;49.916;14.536;2022-08-30T18:11:54;97203.56;;;19.79;60.11
42847;BME280;28495;49.916;14.536;2022-08-30T18:17:16;97191.16;;;19.58;60.01
42847;BME280;28495;49.916;14.536;2022-08-30T18:22:36;97194.94;;;19.49;60.52
42847;BME280;28495;49.916;14.536;2022-08-30T18:27:57;97214.63;;;19.46;60.49
42847;BME280;28495;49.916;14.536;2022-08-30T18:33:18;97215.94;;;19.36;60.64
42847;BME280;28495;49.916;14.536;2022-08-30T18:38:40;97212.50;;;19.20;60.71
42847;BME280;28495;49.916;14.536;2022-08-30T18:44:02;97220.78;;;19.17;60.79
42847;BME280;28495;49.916;14.536;2022-08-30T18:49:43;97224.59;;;19.14;60.92
42847;BME280;28495;49.916;14.536;2022-08-30T18:55:04;97228.16;;;19.07;61.09
42847;BME280;28495;49.916;14.536;2022-08-30T19:00:25;97228.91;;;19.00;61.13
42847;BME280;28495;49.916;14.536;2022-08-30T19:05:46;97224.81;;;18.98;61.29
42847;BME280;28495;49.916;14.536;2022-08-30T19:11:07;97220.63;;;19.03;61.44
42847;BME280;28495;49.916;14.536;2022-08-30T19:16:28;97227.78;;;19.10;61.28
42847;BME280;28495;49.916;14.536;2022-08-30T19:21:50;97237.56;;;19.09;61.29
42847;BME280;28495;49.916;14.536;2022-08-30T19:27:11;97235.38;;;18.98;61.34
42847;BME280;28495;49.916;14.536;2022-08-30T19:32:32;97233.50;;;18.83;61.10
42847;BME280;28495;49.916;14.536;2022-08-30T19:37:53;97238.44;;;18.71;60.93
42847;BME280;28495;49.916;14.536;2022-08-30T19:43:14;97235.59;;;18.58;61.20
42847;BME280;28495;49.916;14.536;2022-08-30T19:48:38;97230.38;;;18.50;61.69
42847;BME280;28495;49.916;14.536;2022-08-30T19:54:03;97231.38;;;18.49;61.61
42847;BME280;28495;49.916;14.536;2022-08-30T19:59:27;97232.75;;;18.45;61.75
42847;BME280;28495;49.916;14.536;2022-08-30T20:04:49;97236.72;;;18.40;61.55
42847;BME280;28495;49.916;14.536;2022-08-30T20:10:11;97240.19;;;18.41;61.77
42847;BME280;28495;49.916;14.536;2022-08-30T20:15:33;97239.38;;;18.40;61.42
42847;BME280;28495;49.916;14.536;2022-08-30T20:20:55;97229.88;;;18.31;61.46
42847;BME280;28495;49.916;14.536;2022-08-30T20:26:16;97237.31;;;18.27;61.51
42847;BME280;28495;49.916;14.536;2022-08-30T20:31:37;97226.59;;;18.29;61.75
42847;BME280;28495;49.916;14.536;2022-08-30T20:36:58;97226.22;;;18.32;61.70
42847;BME280;28495;49.916;14.536;2022-08-30T20:42:19;97226.22;;;18.32;61.71
42847;BME280;28495;49.916;14.536;2022-08-30T20:47:41;97217.16;;;18.35;61.84
42847;BME280;28495;49.916;14.536;2022-08-30T20:53:02;97218.41;;;18.39;62.04
42847;BME280;28495;49.916;14.536;2022-08-30T20:58:23;97226.63;;;18.44;61.89
42847;BME280;28495;49.916;14.536;2022-08-30T21:03:44;97225.81;;;18.43;61.92
42847;BME280;28495;49.916;14.536;2022-08-30T21:09:07;97231.09;;;18.43;61.94
42847;BME280;28495;49.916;14.536;2022-08-30T21:14:28;97236.44;;;18.35;62.02
42847;BME280;28495;49.916;14.536;2022-08-30T21:19:52;97235.09;;;18.39;61.96
42847;BME280;28495;49.916;14.536;2022-08-30T21:25:13;97227.63;;;18.43;62.13
42847;BME280;28495;49.916;14.536;2022-08-30T21:30:35;97227.28;;;18.46;62.02
42847;BME280;28495;49.916;14.536;2022-08-30T21:35:57;97233.91;;;18.42;61.59
42847;BME280;28495;49.916;14.536;2022-08-30T21:41:37;97230.41;;;18.26;61.55
42847;BME280;28495;49.916;14.536;2022-08-30T21:46:58;97230.41;;;18.26;61.63
42847;BME280;28495;49.916;14.536;2022-08-30T21:52:19;97228.94;;;18.24;61.97
42847;BME280;28495;49.916;14.536;2022-08-30T21:57:40;97241.69;;;18.20;61.76
42847;BME280;28495;49.916;14.536;2022-08-30T22:03:00;97235.91;;;18.17;61.74
42847;BME280;28495;49.916;14.536;2022-08-30T22:08:21;97243.03;;;18.16;61.71
42847;BME280;28495;49.916;14.536;2022-08-30T22:13:44;97239.50;;;18.01;61.56
42847;BME280;28495;49.916;14.536;2022-08-30T22:19:08;97236.25;;;17.90;61.71
42847;BME280;28495;49.916;14.536;2022-08-30T22:24:29;97237.78;;;17.85;61.63
42847;BME280;28495;49.916;14.536;2022-08-30T22:29:52;97243.53;;;17.88;61.93
42847;BME280;28495;49.916;14.536;2022-08-30T22:35:13;97233.78;;;17.89;62.25
42847;BME280;28495;49.916;14.536;2022-08-30T22:40:34;97233.13;;;17.87;61.76
42847;BME280;28495;49.916;14.536;2022-08-30T22:45:56;97238.78;;;17.83;61.91
42847;BME280;28495;49.916;14.536;2022-08-30T22:51:19;97232.31;;;17.86;61.90
42847;BME280;28495;49.916;14.536;2022-08-30T22:56:40;97235.97;;;17.85;62.05
42847;BME280;28495;49.916;14.536;2022-08-30T23:02:01;97223.69;;;17.92;62.02
42847;BME280;28495;49.916;14.536;2022-08-30T23:07:23;97226.97;;;17.94;62.19
42847;BME280;28495;49.916;14.536;2022-08-30T23:12:44;97221.69;;;17.94;61.98
42847;BME280;28495;49.916;14.536;2022-08-30T23:18:05;97221.91;;;17.93;62.09
42847;BME280;28495;49.916;14.536;2022-08-30T23:23:25;97220.41;;;17.98;61.98
42847;BME280;28495;49.916;14.536;2022-08-30T23:29:05;97207.88;;;17.92;61.99
42847;BME280;28495;49.916;14.536;2022-08-30T23:34:45;97211.44;;;17.76;61.51
42847;BME280;28495;49.916;14.536;2022-08-30T23:40:25;97201.09;;;17.75;61.81
42847;BME280;28495;49.916;14.536;2022-08-30T23:46:04;97200.03;;;17.84;61.94
42847;BME280;28495;49.916;14.536;2022-08-30T23:51:43;97200.31;;;17.89;62.03
42847;BME280;28495;49.916;14.536;2022-08-30T23:57:23;97201.47;;;17.87;62.03
